createdAt,value
2023-05-14T00:02:01.825Z,3.83
2023-05-14T00:05:05.122Z,4.03
2023-05-14T00:08:07.722Z,3.95
2023-05-14T00:11:10.215Z,4.30
2023-05-14T00:14:12.605Z,4.15
2023-05-14T00:17:15.031Z,4.05
2023-05-14T00:20:17.541Z,3.67
2023-05-14T00:23:20.328Z,4.25
2023-05-14T00:26:22.846Z,3.43
2023-05-14T00:29:25.309Z,3.83
2023-05-14T00:32:27.836Z,3.70
2023-05-14T00:35:30.639Z,3.33
2023-05-14T00:38:33.072Z,3.30
2023-05-14T00:41:35.803Z,3.97
2023-05-14T00:44:38.259Z,2.70
2023-05-14T00:47:41.020Z,3.22
2023-05-14T00:50:43.728Z,3.25
2023-05-14T00:53:47.245Z,3.05
2023-05-14T00:56:50.529Z,2.77
2023-05-14T00:59:53.084Z,2.38
2023-05-14T01:02:55.720Z,3.00
2023-05-14T01:06:26.396Z,3.20
2023-05-14T01:09:46.337Z,3.53
2023-05-14T01:13:25.597Z,3.77
2023-05-14T01:16:29.106Z,3.25
2023-05-14T01:19:41.754Z,3.35
2023-05-14T01:22:44.175Z,3.20
2023-05-14T01:25:46.794Z,3.00
2023-05-14T01:28:49.706Z,3.30
2023-05-14T01:31:54.233Z,3.70
2023-05-14T01:34:58.608Z,3.35
2023-05-14T01:38:05.121Z,3.33
2023-05-14T01:41:07.630Z,3.45
2023-05-14T01:44:10.707Z,3.13
2023-05-14T01:47:13.440Z,3.88
2023-05-14T01:50:16.000Z,3.72
2023-05-14T01:53:18.392Z,3.65
2023-05-14T01:56:24.344Z,3.85
2023-05-14T01:59:26.859Z,3.70
2023-05-14T02:02:29.277Z,4.25
2023-05-14T02:05:31.747Z,5.13
2023-05-14T02:08:34.252Z,5.10
2023-05-14T02:11:36.730Z,4.38
2023-05-14T02:14:39.238Z,4.87
2023-05-14T02:17:41.713Z,4.88
2023-05-14T02:20:46.771Z,4.90
2023-05-14T02:23:50.218Z,4.35
2023-05-14T02:26:52.726Z,4.50
2023-05-14T02:29:56.655Z,4.60
2023-05-14T02:32:59.292Z,4.65
2023-05-14T02:36:01.742Z,4.47
2023-05-14T02:39:04.848Z,4.85
2023-05-14T02:42:07.553Z,5.40
2023-05-14T02:45:10.358Z,4.40
2023-05-14T02:48:12.931Z,5.88
2023-05-14T02:51:16.382Z,5.25
2023-05-14T02:54:18.800Z,8.68
2023-05-14T02:57:21.341Z,12.00
2023-05-14T03:00:24.271Z,8.93
2023-05-14T03:03:27.289Z,8.10
2023-05-14T03:06:31.230Z,6.85
2023-05-14T03:09:34.635Z,7.28
2023-05-14T03:12:38.572Z,5.80
2023-05-14T03:15:41.164Z,5.13
2023-05-14T03:18:43.702Z,4.05
2023-05-14T03:21:46.265Z,5.22
2023-05-14T03:24:48.764Z,4.07
2023-05-14T03:27:51.189Z,4.57
2023-05-14T03:30:53.739Z,3.67
2023-05-14T03:33:56.183Z,3.88
2023-05-14T03:36:58.576Z,3.85
2023-05-14T03:40:00.921Z,3.50
2023-05-14T03:43:03.338Z,3.05
2023-05-14T03:46:05.792Z,3.00
2023-05-14T03:49:08.952Z,2.80
2023-05-14T03:52:11.443Z,2.78
2023-05-14T03:55:13.959Z,2.67
2023-05-14T03:58:17.695Z,2.85
2023-05-14T04:01:20.140Z,2.40
2023-05-14T04:04:22.588Z,2.22
2023-05-14T04:07:25.013Z,2.60
2023-05-14T04:10:29.133Z,2.05
2023-05-14T04:13:31.604Z,2.05
2023-05-14T04:16:34.406Z,2.13
2023-05-14T04:19:36.917Z,1.88
2023-05-14T04:22:39.344Z,2.17
2023-05-14T04:25:42.193Z,1.85
2023-05-14T04:28:44.630Z,2.38
2023-05-14T04:31:47.152Z,2.00
2023-05-14T04:34:49.583Z,2.08
2023-05-14T04:37:52.062Z,2.35
2023-05-14T04:40:54.513Z,2.08
2023-05-14T04:43:57.094Z,2.10
2023-05-14T04:46:59.462Z,2.00
2023-05-14T04:50:02.352Z,2.10
2023-05-14T04:53:04.872Z,1.70
2023-05-14T04:56:07.477Z,1.33
2023-05-14T04:59:09.893Z,2.30
2023-05-14T05:02:12.268Z,1.87
2023-05-14T05:05:14.718Z,2.10
2023-05-14T05:08:17.080Z,2.17
2023-05-14T05:11:19.511Z,2.30
2023-05-14T05:14:21.985Z,1.83
2023-05-14T05:17:25.107Z,1.87
2023-05-14T05:20:28.329Z,2.03
2023-05-14T05:23:30.718Z,1.75
2023-05-14T05:26:33.244Z,1.52
2023-05-14T05:29:35.717Z,1.90
2023-05-14T05:32:38.285Z,2.03
2023-05-14T05:35:40.958Z,2.10
2023-05-14T05:38:43.484Z,2.47
2023-05-14T05:41:45.870Z,1.92
2023-05-14T05:44:48.339Z,1.98
2023-05-14T05:47:50.930Z,2.80
2023-05-14T05:50:53.409Z,3.17
2023-05-14T05:53:56.008Z,2.80
2023-05-14T05:56:59.225Z,3.20
2023-05-14T06:00:07.973Z,2.83
2023-05-14T06:03:15.205Z,2.70
2023-05-14T06:06:17.681Z,2.70
2023-05-14T06:09:20.148Z,3.30
2023-05-14T06:12:22.578Z,2.80
2023-05-14T06:15:25.043Z,2.45
2023-05-14T06:18:27.500Z,3.03
2023-05-14T06:21:29.904Z,2.88
2023-05-14T06:24:33.019Z,2.83
2023-05-14T06:27:35.388Z,2.67
2023-05-14T06:30:37.820Z,3.00
2023-05-14T06:33:40.561Z,2.80
2023-05-14T06:36:43.029Z,3.33
2023-05-14T06:39:50.141Z,3.33
2023-05-14T06:42:52.659Z,3.30
2023-05-14T06:45:55.622Z,3.33
2023-05-14T06:48:59.546Z,3.20
2023-05-14T06:52:02.364Z,3.22
2023-05-14T06:55:05.085Z,3.38
2023-05-14T06:58:08.281Z,3.20
2023-05-14T07:01:10.742Z,3.40
2023-05-14T07:04:13.226Z,3.20
2023-05-14T07:07:18.345Z,3.40
2023-05-14T07:10:20.926Z,3.45
2023-05-14T07:13:24.943Z,3.30
2023-05-14T07:16:28.841Z,2.58
2023-05-14T07:19:31.367Z,3.30
2023-05-14T07:22:33.903Z,2.97
2023-05-14T07:25:36.388Z,3.03
2023-05-14T07:28:38.901Z,3.15
2023-05-14T07:31:41.347Z,3.05
2023-05-14T07:34:43.875Z,3.30
2023-05-14T07:37:46.392Z,3.10
2023-05-14T07:40:48.840Z,3.03
2023-05-14T07:43:51.352Z,3.67
2023-05-14T07:46:53.843Z,3.00
2023-05-14T07:49:59.328Z,3.23
2023-05-14T07:53:01.802Z,3.47
2023-05-14T07:56:04.534Z,3.28
2023-05-14T07:59:07.471Z,3.22
2023-05-14T08:02:13.119Z,3.40
2023-05-14T08:05:15.933Z,3.30
2023-05-14T08:08:18.384Z,3.63
2023-05-14T08:11:22.397Z,3.38
2023-05-14T08:14:24.845Z,3.40
2023-05-14T08:17:27.401Z,3.17
2023-05-14T08:20:31.199Z,2.83
2023-05-14T08:23:33.684Z,2.97
2023-05-14T08:26:36.085Z,3.10
2023-05-14T08:29:38.526Z,2.90
2023-05-14T08:32:41.248Z,3.03
2023-05-14T08:35:43.800Z,2.90
2023-05-14T08:38:46.263Z,2.90
2023-05-14T08:41:48.747Z,3.00
2023-05-14T08:44:59.148Z,2.97
2023-05-14T08:48:05.644Z,3.45
2023-05-14T08:51:08.278Z,3.13
2023-05-14T08:54:10.780Z,3.55
2023-05-14T08:57:13.323Z,3.22
2023-05-14T09:00:15.988Z,3.17
2023-05-14T09:03:18.755Z,2.95
2023-05-14T09:06:22.297Z,2.90
2023-05-14T09:09:24.829Z,3.30
2023-05-14T09:12:27.343Z,3.35
2023-05-14T09:15:30.605Z,3.13
2023-05-14T09:18:33.221Z,2.90
2023-05-14T09:21:35.822Z,2.90
2023-05-14T09:24:41.882Z,3.00
2023-05-14T09:27:50.166Z,3.05
2023-05-14T09:30:52.748Z,3.28
2023-05-14T09:33:55.285Z,2.92
2023-05-14T09:37:08.536Z,2.87
2023-05-14T09:40:12.034Z,3.50
2023-05-14T09:43:14.959Z,2.97
2023-05-14T09:46:17.824Z,2.83
2023-05-14T09:49:20.646Z,2.75
2023-05-14T09:52:26.459Z,3.27
2023-05-14T09:55:29.362Z,3.30
2023-05-14T09:58:31.890Z,2.25
2023-05-14T10:01:34.608Z,3.17
2023-05-14T10:04:37.490Z,2.80
2023-05-14T10:07:48.286Z,2.23
2023-05-14T10:10:59.075Z,2.33
2023-05-14T10:14:08.683Z,2.80
2023-05-14T10:17:18.296Z,3.05
2023-05-14T10:20:21.074Z,2.55
2023-05-14T10:23:23.867Z,2.80
2023-05-14T10:26:26.583Z,2.55
2023-05-14T10:29:34.213Z,2.60
2023-05-14T10:32:38.025Z,2.65
2023-05-14T10:36:06.132Z,2.33
2023-05-14T10:39:09.144Z,2.20
2023-05-14T10:42:16.626Z,2.20
2023-05-14T10:45:19.138Z,2.13
2023-05-14T10:48:21.879Z,2.30
2023-05-14T10:51:24.428Z,2.15
2023-05-14T10:54:28.211Z,2.17
2023-05-14T10:57:31.697Z,1.92
2023-05-14T11:00:34.433Z,1.98
2023-05-14T11:03:43.020Z,1.50
2023-05-14T11:06:47.442Z,1.83
2023-05-14T11:09:51.023Z,1.53
2023-05-14T11:12:53.400Z,1.88
2023-05-14T11:15:56.108Z,1.75
2023-05-14T11:19:03.509Z,1.50
2023-05-14T11:22:06.645Z,1.60
2023-05-14T11:25:10.165Z,1.53
2023-05-14T11:28:12.565Z,1.52
2023-05-14T11:31:15.238Z,1.50
2023-05-14T11:34:17.681Z,1.92
2023-05-14T11:37:20.370Z,1.42
2023-05-14T11:40:22.968Z,1.60
2023-05-14T11:43:29.465Z,1.30
2023-05-14T11:46:32.087Z,2.40
2023-05-14T11:49:37.479Z,1.85
2023-05-14T11:52:41.372Z,1.42
2023-05-14T11:55:43.899Z,1.40
2023-05-14T11:58:49.420Z,1.42
2023-05-14T12:01:54.848Z,2.03
2023-05-14T12:04:57.564Z,1.23
2023-05-14T12:07:59.929Z,1.30
2023-05-14T12:11:02.377Z,1.43
2023-05-14T12:14:30.858Z,1.58
2023-05-14T12:17:33.410Z,1.35
2023-05-14T12:20:36.140Z,1.75
2023-05-14T12:23:38.937Z,1.63
2023-05-14T12:26:46.609Z,1.50
2023-05-14T12:29:48.980Z,1.70
2023-05-14T12:32:53.057Z,1.50
2023-05-14T12:36:09.921Z,1.40
2023-05-14T12:39:22.586Z,3.15
2023-05-14T12:42:25.023Z,5.53
2023-05-14T12:45:27.450Z,6.97
2023-05-14T12:48:29.986Z,2.58
2023-05-14T12:51:32.495Z,2.40
2023-05-14T12:54:34.871Z,2.88
2023-05-14T12:57:39.320Z,1.60
2023-05-14T13:00:42.251Z,2.63
2023-05-14T13:03:44.750Z,1.52
2023-05-14T13:06:47.548Z,1.50
2023-05-14T13:09:49.986Z,1.50
2023-05-14T13:12:52.782Z,1.70
2023-05-14T13:15:55.657Z,2.10
2023-05-14T13:18:58.332Z,2.35
2023-05-14T13:22:00.847Z,2.30
2023-05-14T13:25:03.459Z,2.30
2023-05-14T13:28:05.981Z,1.70
2023-05-14T13:31:12.618Z,2.08
2023-05-14T13:34:15.118Z,2.20
2023-05-14T13:37:17.614Z,2.20
2023-05-14T13:40:20.085Z,2.00
2023-05-14T13:43:22.463Z,5.80
2023-05-14T13:46:25.005Z,2.60
2023-05-14T13:49:27.476Z,2.03
2023-05-14T13:52:30.040Z,2.10
2023-05-14T13:55:32.473Z,1.30
2023-05-14T13:58:35.023Z,1.87
2023-05-14T14:01:37.524Z,1.80
2023-05-14T14:04:40.014Z,1.48
2023-05-14T14:07:42.747Z,1.45
2023-05-14T14:10:45.343Z,1.30
2023-05-14T14:13:47.917Z,1.37
2023-05-14T14:16:50.961Z,1.45
2023-05-14T14:19:53.511Z,1.80
2023-05-14T14:22:56.201Z,1.95
2023-05-14T14:25:58.679Z,1.20
2023-05-14T14:29:01.110Z,1.47
2023-05-14T14:32:04.271Z,1.38
2023-05-14T14:35:07.140Z,1.67
2023-05-14T14:38:09.679Z,1.85
2023-05-14T14:41:12.319Z,1.95
2023-05-14T14:44:14.767Z,1.80
2023-05-14T14:47:17.296Z,2.10
2023-05-14T14:50:19.825Z,5.68
2023-05-14T14:53:22.432Z,4.15
2023-05-14T14:56:26.982Z,3.58
2023-05-14T14:59:29.477Z,3.70
2023-05-14T15:02:32.042Z,3.10
2023-05-14T15:05:34.703Z,2.92
2023-05-14T15:08:37.350Z,3.30
2023-05-14T15:11:39.933Z,3.50
2023-05-14T15:14:42.392Z,3.53
2023-05-14T15:17:44.932Z,10.65
2023-05-14T15:20:47.390Z,19.63
2023-05-14T15:23:49.851Z,24.52
2023-05-14T15:26:53.388Z,7.47
2023-05-14T15:29:56.262Z,5.37
2023-05-14T15:32:58.744Z,5.68
2023-05-14T15:36:01.182Z,5.38
2023-05-14T15:39:03.652Z,4.85
2023-05-14T15:42:06.580Z,4.85
2023-05-14T15:45:10.435Z,8.33
2023-05-14T15:48:12.872Z,9.40
2023-05-14T15:51:15.431Z,9.15
2023-05-14T15:54:18.011Z,10.85
2023-05-14T15:57:20.451Z,10.23
2023-05-14T16:00:24.868Z,7.20
2023-05-14T16:03:27.666Z,7.80
2023-05-14T16:06:30.206Z,7.75
2023-05-14T16:09:33.735Z,5.15
2023-05-14T16:12:36.203Z,4.43
2023-05-14T16:15:39.887Z,5.23
2023-05-14T16:18:43.270Z,4.70
2023-05-14T16:21:45.733Z,3.78
2023-05-14T16:24:48.219Z,4.63
2023-05-14T16:27:50.787Z,4.72
2023-05-14T16:30:53.266Z,7.77
2023-05-14T16:33:55.833Z,7.93
2023-05-14T16:36:59.496Z,8.45
2023-05-14T16:40:02.129Z,6.60
2023-05-14T16:43:04.656Z,5.47
2023-05-14T16:46:07.128Z,5.67
2023-05-14T16:49:09.616Z,7.20
2023-05-14T16:52:12.067Z,6.63
2023-05-14T16:55:14.562Z,6.45
2023-05-14T16:58:17.035Z,7.82
2023-05-14T17:01:19.570Z,12.47
2023-05-14T17:04:22.789Z,9.65
2023-05-14T17:07:25.224Z,8.30
2023-05-14T17:10:27.742Z,8.50
2023-05-14T17:13:30.555Z,10.00
2023-05-14T17:16:33.049Z,23.13
2023-05-14T17:19:35.552Z,12.38
2023-05-14T17:22:38.096Z,20.45
2023-05-14T17:25:40.681Z,15.15
2023-05-14T17:28:45.489Z,10.23
2023-05-14T17:31:48.733Z,16.40
2023-05-14T17:34:51.376Z,15.98
2023-05-14T17:37:53.959Z,15.52
2023-05-14T17:40:56.480Z,12.10
2023-05-14T17:43:59.467Z,9.40
2023-05-14T17:47:03.182Z,8.80
2023-05-14T17:50:06.148Z,8.82
2023-05-14T17:53:08.759Z,8.43
2023-05-14T17:56:11.396Z,7.43
2023-05-14T17:59:13.861Z,7.72
2023-05-14T18:02:16.304Z,12.00
2023-05-14T18:05:20.934Z,8.25
2023-05-14T18:08:23.518Z,8.98
2023-05-14T18:11:26.524Z,7.07
2023-05-14T18:14:28.972Z,20.02
2023-05-14T18:17:31.457Z,14.17
2023-05-14T18:20:35.537Z,14.45
2023-05-14T18:23:38.206Z,17.00
2023-05-14T18:26:40.890Z,25.40
2023-05-14T18:29:43.926Z,21.52
2023-05-14T18:32:46.753Z,19.90
2023-05-14T18:35:49.268Z,19.15
2023-05-14T18:38:51.741Z,14.55
2023-05-14T18:41:55.122Z,11.77
2023-05-14T18:44:57.505Z,10.35
2023-05-14T18:48:00.164Z,9.40
2023-05-14T18:51:02.896Z,10.20
2023-05-14T18:54:05.399Z,9.05
2023-05-14T18:57:08.123Z,6.85
2023-05-14T19:00:11.171Z,6.53
2023-05-14T19:03:13.898Z,6.67
2023-05-14T19:06:17.861Z,6.55
2023-05-14T19:09:21.334Z,5.75
2023-05-14T19:12:24.047Z,5.35
2023-05-14T19:15:26.826Z,6.07
2023-05-14T19:18:29.787Z,6.40
2023-05-14T19:21:32.389Z,5.60
2023-05-14T19:24:35.138Z,6.30
2023-05-14T19:27:38.476Z,8.52
2023-05-14T19:30:41.376Z,10.50
2023-05-14T19:33:43.989Z,7.17
2023-05-14T19:36:46.638Z,6.43
2023-05-14T19:39:49.145Z,5.20
2023-05-14T19:42:51.646Z,6.18
2023-05-14T19:45:54.385Z,6.47
2023-05-14T19:48:56.999Z,6.67
2023-05-14T19:51:59.437Z,5.30
2023-05-14T19:55:01.920Z,5.53
2023-05-14T19:58:07.766Z,6.30
2023-05-14T20:01:10.258Z,5.68
2023-05-14T20:04:14.124Z,7.80
2023-05-14T20:07:17.205Z,6.85
2023-05-14T20:10:20.627Z,6.18
2023-05-14T20:13:25.056Z,7.05
2023-05-14T20:16:28.660Z,6.30
2023-05-14T20:19:31.260Z,6.43
2023-05-14T20:22:33.701Z,5.80
2023-05-14T20:25:36.149Z,6.00
2023-05-14T20:28:38.614Z,6.20
2023-05-14T20:31:41.181Z,5.38
2023-05-14T20:34:43.880Z,5.83
2023-05-14T20:37:47.287Z,6.22
2023-05-14T20:40:49.809Z,5.88
2023-05-14T20:43:52.294Z,6.68
2023-05-14T20:46:54.805Z,5.07
2023-05-14T20:49:57.220Z,4.03
2023-05-14T20:52:59.790Z,3.83
2023-05-14T20:56:02.357Z,5.32
2023-05-14T20:59:04.762Z,5.25
2023-05-14T21:02:07.522Z,5.47
2023-05-14T21:05:10.092Z,5.27
2023-05-14T21:08:12.669Z,5.18
2023-05-14T21:11:15.212Z,6.05
2023-05-14T21:14:17.666Z,4.53
2023-05-14T21:17:20.304Z,4.63
2023-05-14T21:20:23.074Z,3.47
2023-05-14T21:23:25.527Z,3.67
2023-05-14T21:26:30.706Z,4.45
2023-05-14T21:29:33.157Z,4.63
2023-05-14T21:32:35.641Z,3.92
2023-05-14T21:35:38.202Z,5.50
2023-05-14T21:38:41.008Z,5.15
2023-05-14T21:41:43.496Z,4.85
2023-05-14T21:44:45.919Z,4.80
2023-05-14T21:47:48.448Z,5.03
2023-05-14T21:50:50.900Z,3.47
2023-05-14T21:53:53.317Z,4.95
2023-05-14T21:56:55.822Z,5.30
2023-05-14T21:59:58.303Z,4.97
2023-05-14T22:03:00.763Z,5.25
2023-05-14T22:06:03.490Z,5.00
2023-05-14T22:09:05.907Z,4.95
2023-05-14T22:12:08.476Z,4.60
2023-05-14T22:15:11.621Z,4.60
2023-05-14T22:18:15.416Z,4.53
2023-05-14T22:21:17.876Z,3.60
2023-05-14T22:24:20.342Z,4.25
2023-05-14T22:27:23.031Z,4.03
2023-05-14T22:30:25.552Z,4.13
2023-05-14T22:33:27.967Z,3.50
2023-05-14T22:36:30.496Z,4.03
2023-05-14T22:39:32.929Z,4.50
2023-05-14T22:42:35.506Z,4.72
2023-05-14T22:45:37.990Z,4.18
2023-05-14T22:48:40.514Z,4.68
2023-05-14T22:51:42.905Z,4.90
2023-05-14T22:54:46.654Z,4.18
2023-05-14T22:57:49.124Z,4.18
2023-05-14T23:00:51.518Z,3.78
2023-05-14T23:03:53.933Z,3.85
2023-05-14T23:06:56.348Z,3.97
2023-05-14T23:09:58.742Z,4.38
2023-05-14T23:13:01.367Z,4.07
2023-05-14T23:16:04.177Z,4.68
2023-05-14T23:19:06.893Z,4.32
2023-05-14T23:22:09.464Z,4.20
2023-05-14T23:25:11.873Z,4.25
2023-05-14T23:28:14.593Z,4.60
2023-05-14T23:31:17.022Z,4.20
2023-05-14T23:34:19.594Z,4.25
2023-05-14T23:37:22.083Z,5.33
2023-05-14T23:40:24.541Z,3.83
2023-05-14T23:43:27.034Z,3.97
2023-05-14T23:46:29.657Z,4.05
2023-05-14T23:49:32.256Z,3.72
2023-05-14T23:52:34.760Z,4.30
2023-05-14T23:55:37.149Z,4.20
2023-05-14T23:58:39.615Z,4.03
